sensor_id;sensor_type;location;lat;lon;timestamp;pressure;altitude;pressure_sealevel;temperature;humidity
59825;BME280;45703;50.898;6.054;2023-09-18T00:02:23;99220.41;;;19.33;100.00
59825;BME280;45703;50.898;6.054;2023-09-18T00:04:49;99211.66;;;19.36;100.00
59825;BME280;45703;50.898;6.054;2023-09-18T00:07:14;99207.38;;;19.35;100.00
59825;BME280;45703;50.898;6.054;2023-09-18T00:09:40;99200.84;;;19.36;100.00
59825;BME280;45703;50.898;6.054;2023-09-18T00:12:05;99187.91;;;19.33;100.00
59825;BME280;45703;50.898;6.054;2023-09-18T00:14:31;99183.28;;;19.33;100.00
59825;BME280;45703;50.898;6.054;2023-09-18T00:16:57;99172.28;;;19.30;100.00
59825;BME280;45703;50.898;6.054;2023-09-18T00:19:23;99180.91;;;19.32;100.00
59825;BME280;45703;50.898;6.054;2023-09-18T00:21:49;99173.69;;;19.27;100.00
59825;BME280;45703;50.898;6.054;2023-09-18T00:24:14;99172.91;;;19.27;100.00
59825;BME280;45703;50.898;6.054;2023-09-18T00:26:40;99174.00;;;19.26;100.00
59825;BME280;45703;50.898;6.054;2023-09-18T00:29:05;99175.88;;;19.25;100.00
59825;BME280;45703;50.898;6.054;2023-09-18T00:31:30;99179.69;;;19.24;100.00
59825;BME280;45703;50.898;6.054;2023-09-18T00:33:56;99165.38;;;19.24;100.00
59825;BME280;45703;50.898;6.054;2023-09-18T00:36:21;99158.97;;;19.20;100.00
59825;BME280;45703;50.898;6.054;2023-09-18T00:38:46;99162.19;;;19.22;100.00
59825;BME280;45703;50.898;6.054;2023-09-18T00:41:12;99170.31;;;19.22;100.00
59825;BME280;45703;50.898;6.054;2023-09-18T00:43:38;99154.06;;;19.22;100.00
59825;BME280;45703;50.898;6.054;2023-09-18T00:46:03;99158.66;;;19.21;100.00
59825;BME280;45703;50.898;6.054;2023-09-18T00:48:29;99149.53;;;19.17;100.00
59825;BME280;45703;50.898;6.054;2023-09-18T00:50:55;99157.06;;;19.20;100.00
59825;BME280;45703;50.898;6.054;2023-09-18T00:53:22;99153.84;;;19.18;100.00
59825;BME280;45703;50.898;6.054;2023-09-18T00:55:50;99162.78;;;19.19;100.00
59825;BME280;45703;50.898;6.054;2023-09-18T00:58:18;99169.31;;;19.18;100.00
59825;BME280;45703;50.898;6.054;2023-09-18T01:00:44;99169.31;;;19.18;100.00
59825;BME280;45703;50.898;6.054;2023-09-18T01:03:10;99175.81;;;19.17;100.00
59825;BME280;45703;50.898;6.054;2023-09-18T01:05:36;99156.16;;;19.11;100.00
59825;BME280;45703;50.898;6.054;2023-09-18T01:08:01;99162.88;;;19.14;100.00
59825;BME280;45703;50.898;6.054;2023-09-18T01:10:36;99159.63;;;19.12;100.00
59825;BME280;45703;50.898;6.054;2023-09-18T01:13:11;99145.09;;;19.08;100.00
59825;BME280;45703;50.898;6.054;2023-09-18T01:15:45;99132.19;;;19.05;100.00
59825;BME280;45703;50.898;6.054;2023-09-18T01:18:13;99129.00;;;19.03;100.00
59825;BME280;45703;50.898;6.054;2023-09-18T01:20:39;99119.38;;;18.97;100.00
59825;BME280;45703;50.898;6.054;2023-09-18T01:23:04;99115.41;;;18.94;100.00
59825;BME280;45703;50.898;6.054;2023-09-18T01:25:31;99107.19;;;18.86;100.00
59825;BME280;45703;50.898;6.054;2023-09-18T01:27:57;99111.97;;;18.89;100.00
59825;BME280;45703;50.898;6.054;2023-09-18T01:30:22;99109.38;;;18.84;100.00
59825;BME280;45703;50.898;6.054;2023-09-18T01:32:50;99109.38;;;18.84;100.00
59825;BME280;45703;50.898;6.054;2023-09-18T01:35:19;99095.47;;;18.77;100.00
59825;BME280;45703;50.898;6.054;2023-09-18T01:37:50;99096.47;;;18.81;100.00
59825;BME280;45703;50.898;6.054;2023-09-18T01:40:18;99083.84;;;18.77;100.00
59825;BME280;45703;50.898;6.054;2023-09-18T01:42:45;99094.53;;;18.82;100.00
59825;BME280;45703;50.898;6.054;2023-09-18T01:45:11;99092.16;;;18.80;100.00
59825;BME280;45703;50.898;6.054;2023-09-18T01:47:36;99092.16;;;18.80;100.00
59825;BME280;45703;50.898;6.054;2023-09-18T01:50:03;99087.53;;;18.81;100.00
59825;BME280;45703;50.898;6.054;2023-09-18T01:52:32;99095.97;;;18.79;100.00
59825;BME280;45703;50.898;6.054;2023-09-18T01:54:57;99082.94;;;18.81;100.00
59825;BME280;45703;50.898;6.054;2023-09-18T01:57:23;99080.75;;;18.83;100.00
59825;BME280;45703;50.898;6.054;2023-09-18T01:59:48;99076.94;;;18.84;100.00
59825;BME280;45703;50.898;6.054;2023-09-18T02:02:13;99061.31;;;18.81;100.00
59825;BME280;45703;50.898;6.054;2023-09-18T02:04:39;99090.34;;;18.89;100.00
59825;BME280;45703;50.898;6.054;2023-09-18T02:07:05;99084.31;;;18.92;100.00
59825;BME280;45703;50.898;6.054;2023-09-18T02:09:31;99088.03;;;18.96;100.00
59825;BME280;45703;50.898;6.054;2023-09-18T02:11:56;99087.41;;;18.99;100.00
59825;BME280;45703;50.898;6.054;2023-09-18T02:14:22;99081.41;;;19.02;100.00
59825;BME280;45703;50.898;6.054;2023-09-18T02:16:47;99075.59;;;19.08;100.00
59825;BME280;45703;50.898;6.054;2023-09-18T02:19:14;99074.66;;;19.13;100.00
59825;BME280;45703;50.898;6.054;2023-09-18T02:21:40;99064.88;;;19.17;100.00
59825;BME280;45703;50.898;6.054;2023-09-18T02:24:06;99065.88;;;19.21;100.00
59825;BME280;45703;50.898;6.054;2023-09-18T02:26:35;99049.31;;;19.22;100.00
59825;BME280;45703;50.898;6.054;2023-09-18T02:29:05;99039.44;;;19.18;100.00
59825;BME280;45703;50.898;6.054;2023-09-18T02:31:33;99031.69;;;19.25;100.00
59825;BME280;45703;50.898;6.054;2023-09-18T02:34:01;99058.09;;;19.41;100.00
59825;BME280;45703;50.898;6.054;2023-09-18T02:36:28;99049.34;;;19.44;100.00
59825;BME280;45703;50.898;6.054;2023-09-18T02:38:56;99039.69;;;19.52;100.00
59825;BME280;45703;50.898;6.054;2023-09-18T02:41:22;99030.72;;;19.65;100.00
59825;BME280;45703;50.898;6.054;2023-09-18T02:43:49;99030.09;;;19.68;100.00
59825;BME280;45703;50.898;6.054;2023-09-18T02:46:17;99029.97;;;19.73;100.00
59825;BME280;45703;50.898;6.054;2023-09-18T02:48:43;99029.06;;;19.86;100.00
59825;BME280;45703;50.898;6.054;2023-09-18T02:51:08;99033.44;;;19.95;99.94
59825;BME280;45703;50.898;6.054;2023-09-18T02:53:34;99016.75;;;20.02;99.61
59825;BME280;45703;50.898;6.054;2023-09-18T02:56:02;99006.25;;;20.09;99.64
59825;BME280;45703;50.898;6.054;2023-09-18T02:58:27;98997.22;;;20.13;99.27
59825;BME280;45703;50.898;6.054;2023-09-18T03:00:56;98981.91;;;20.17;98.34
59825;BME280;45703;50.898;6.054;2023-09-18T03:03:25;98977.66;;;20.25;98.20
59825;BME280;45703;50.898;6.054;2023-09-18T03:05:51;98974.78;;;20.30;98.17
59825;BME280;45703;50.898;6.054;2023-09-18T03:08:16;98956.47;;;20.35;97.34
59825;BME280;45703;50.898;6.054;2023-09-18T03:10:43;98957.41;;;20.39;97.39
59825;BME280;45703;50.898;6.054;2023-09-18T03:13:10;98948.50;;;20.39;97.24
59825;BME280;45703;50.898;6.054;2023-09-18T03:15:36;98936.38;;;20.36;97.19
59825;BME280;45703;50.898;6.054;2023-09-18T03:18:03;98934.94;;;20.39;97.26
59825;BME280;45703;50.898;6.054;2023-09-18T03:20:29;98908.44;;;20.27;97.34
59825;BME280;45703;50.898;6.054;2023-09-18T03:23:02;98916.75;;;20.31;97.34
59825;BME280;45703;50.898;6.054;2023-09-18T03:25:28;98918.50;;;20.27;97.42
59825;BME280;45703;50.898;6.054;2023-09-18T03:27:55;98951.63;;;20.15;96.77
59825;BME280;45703;50.898;6.054;2023-09-18T03:30:24;99008.91;;;20.31;95.97
59825;BME280;45703;50.898;6.054;2023-09-18T03:32:54;99013.09;;;20.37;94.67
59825;BME280;45703;50.898;6.054;2023-09-18T03:35:20;98990.91;;;20.35;94.59
59825;BME280;45703;50.898;6.054;2023-09-18T03:37:50;98983.56;;;20.35;95.49
59825;BME280;45703;50.898;6.054;2023-09-18T03:40:19;98970.00;;;20.27;96.17
59825;BME280;45703;50.898;6.054;2023-09-18T03:42:47;98978.13;;;20.27;96.30
59825;BME280;45703;50.898;6.054;2023-09-18T03:48:08;98962.75;;;20.05;97.24
59825;BME280;45703;50.898;6.054;2023-09-18T03:50:34;98966.00;;;19.94;97.97
59825;BME280;45703;50.898;6.054;2023-09-18T03:52:59;98969.50;;;19.86;98.29
59825;BME280;45703;50.898;6.054;2023-09-18T03:55:25;98972.19;;;19.86;98.46
59825;BME280;45703;50.898;6.054;2023-09-18T03:57:52;98968.94;;;19.75;99.24
59825;BME280;45703;50.898;6.054;2023-09-18T04:00:21;98966.38;;;19.70;99.15
59825;BME280;45703;50.898;6.054;2023-09-18T04:02:48;98962.56;;;19.71;99.22
59825;BME280;45703;50.898;6.054;2023-09-18T04:05:13;98960.34;;;19.73;99.23
59825;BME280;45703;50.898;6.054;2023-09-18T04:07:39;98946.78;;;19.65;99.35
59825;BME280;45703;50.898;6.054;2023-09-18T04:10:12;98952.78;;;19.62;99.85
59825;BME280;45703;50.898;6.054;2023-09-18T04:12:44;98941.88;;;19.45;100.00
59825;BME280;45703;50.898;6.054;2023-09-18T04:15:15;98943.91;;;19.39;100.00
59825;BME280;45703;50.898;6.054;2023-09-18T04:17:48;98918.88;;;19.34;100.00
59825;BME280;45703;50.898;6.054;2023-09-18T04:20:14;98915.06;;;19.35;100.00
59825;BME280;45703;50.898;6.054;2023-09-18T04:22:46;98897.66;;;19.27;100.00
59825;BME280;45703;50.898;6.054;2023-09-18T04:25:15;98927.78;;;19.34;99.85
59825;BME280;45703;50.898;6.054;2023-09-18T04:27:49;98923.19;;;19.35;99.68
59825;BME280;45703;50.898;6.054;2023-09-18T04:30:16;98927.16;;;19.37;99.80
59825;BME280;45703;50.898;6.054;2023-09-18T04:32:43;98919.66;;;19.34;99.60
59825;BME280;45703;50.898;6.054;2023-09-18T04:35:11;98931.31;;;19.35;100.00
59825;BME280;45703;50.898;6.054;2023-09-18T04:37:38;98938.13;;;19.32;100.00
59825;BME280;45703;50.898;6.054;2023-09-18T04:40:06;98941.81;;;19.36;99.73
59825;BME280;45703;50.898;6.054;2023-09-18T04:42:38;98936.09;;;19.38;99.83
59825;BME280;45703;50.898;6.054;2023-09-18T04:45:05;98931.31;;;19.35;99.26
59825;BME280;45703;50.898;6.054;2023-09-18T04:47:31;98922.44;;;19.43;98.84
59825;BME280;45703;50.898;6.054;2023-09-18T04:49:56;98932.16;;;19.44;98.82
59825;BME280;45703;50.898;6.054;2023-09-18T04:52:21;98909.22;;;19.41;99.12
59825;BME280;45703;50.898;6.054;2023-09-18T04:54:47;98909.50;;;19.40;98.99
59825;BME280;45703;50.898;6.054;2023-09-18T04:57:12;98914.78;;;19.45;98.71
59825;BME280;45703;50.898;6.054;2023-09-18T04:59:38;98899.66;;;19.44;98.60
59825;BME280;45703;50.898;6.054;2023-09-18T05:02:03;98914.78;;;19.45;98.73
59825;BME280;45703;50.898;6.054;2023-09-18T05:04:29;98913.34;;;19.39;98.71
59825;BME280;45703;50.898;6.054;2023-09-18T05:06:55;98920.41;;;19.48;98.17
59825;BME280;45703;50.898;6.054;2023-09-18T05:09:23;98913.38;;;19.47;98.27
59825;BME280;45703;50.898;6.054;2023-09-18T05:11:49;98932.47;;;19.42;98.35
59825;BME280;45703;50.898;6.054;2023-09-18T05:14:17;98941.09;;;19.44;98.02
59825;BME280;45703;50.898;6.054;2023-09-18T05:16:42;98938.03;;;19.46;97.59
59825;BME280;45703;50.898;6.054;2023-09-18T05:19:08;98967.06;;;19.54;97.34
59825;BME280;45703;50.898;6.054;2023-09-18T05:21:33;98969.00;;;19.53;97.68
59825;BME280;45703;50.898;6.054;2023-09-18T05:23:58;98975.56;;;19.61;97.26
59825;BME280;45703;50.898;6.054;2023-09-18T05:26:26;98980.47;;;19.59;97.14
59825;BME280;45703;50.898;6.054;2023-09-18T05:28:54;98974.44;;;19.62;97.15
59825;BME280;45703;50.898;6.054;2023-09-18T05:31:20;98966.31;;;19.62;97.20
59825;BME280;45703;50.898;6.054;2023-09-18T05:33:45;98973.94;;;19.60;97.06
59825;BME280;45703;50.898;6.054;2023-09-18T05:36:12;98961.84;;;19.57;96.84
59825;BME280;45703;50.898;6.054;2023-09-18T05:38:38;98949.72;;;19.55;97.16
59825;BME280;45703;50.898;6.054;2023-09-18T05:41:03;98953.88;;;19.52;97.33
59825;BME280;45703;50.898;6.054;2023-09-18T05:43:30;98949.84;;;19.50;96.98
59825;BME280;45703;50.898;6.054;2023-09-18T05:45:56;98953.53;;;19.54;96.91
59825;BME280;45703;50.898;6.054;2023-09-18T05:48:21;98962.50;;;19.63;96.60
59825;BME280;45703;50.898;6.054;2023-09-18T05:50:49;98967.44;;;19.61;96.31
59825;BME280;45703;50.898;6.054;2023-09-18T05:53:21;98975.44;;;19.66;96.31
59825;BME280;45703;50.898;6.054;2023-09-18T05:55:47;98970.75;;;19.58;96.53
59825;BME280;45703;50.898;6.054;2023-09-18T05:58:12;98974.34;;;19.67;96.55
59825;BME280;45703;50.898;6.054;2023-09-18T06:00:41;98978.44;;;19.64;96.50
59825;BME280;45703;50.898;6.054;2023-09-18T06:03:06;98973.47;;;19.58;96.46
59825;BME280;45703;50.898;6.054;2023-09-18T06:05:32;98992.13;;;19.59;96.42
59825;BME280;45703;50.898;6.054;2023-09-18T06:07:59;98973.59;;;19.53;96.50
59825;BME280;45703;50.898;6.054;2023-09-18T06:10:25;98979.06;;;19.61;96.03
59825;BME280;45703;50.898;6.054;2023-09-18T06:12:51;98982.69;;;19.57;96.49
59825;BME280;45703;50.898;6.054;2023-09-18T06:15:19;99005.53;;;19.64;96.43
59825;BME280;45703;50.898;6.054;2023-09-18T06:17:46;98998.72;;;19.67;96.14
59825;BME280;45703;50.898;6.054;2023-09-18T06:20:12;99014.00;;;19.71;95.86
59825;BME280;45703;50.898;6.054;2023-09-18T06:22:41;99019.13;;;19.73;95.74
59825;BME280;45703;50.898;6.054;2023-09-18T06:25:08;99016.41;;;19.73;95.63
59825;BME280;45703;50.898;6.054;2023-09-18T06:27:35;99026.31;;;19.77;94.99
59825;BME280;45703;50.898;6.054;2023-09-18T06:30:02;99007.00;;;19.70;95.12
59825;BME280;45703;50.898;6.054;2023-09-18T06:32:27;99033.31;;;19.78;95.02
59825;BME280;45703;50.898;6.054;2023-09-18T06:34:53;99037.97;;;19.78;94.26
59825;BME280;45703;50.898;6.054;2023-09-18T06:37:18;99027.59;;;19.80;94.42
59825;BME280;45703;50.898;6.054;2023-09-18T06:39:46;99038.59;;;19.83;94.21
59825;BME280;45703;50.898;6.054;2023-09-18T06:42:11;99052.16;;;19.83;94.19
59825;BME280;45703;50.898;6.054;2023-09-18T06:44:39;99054.56;;;19.85;93.77
59825;BME280;45703;50.898;6.054;2023-09-18T06:47:04;99024.72;;;19.76;93.25
59825;BME280;45703;50.898;6.054;2023-09-18T06:49:30;99044.84;;;19.84;93.49
59825;BME280;45703;50.898;6.054;2023-09-18T06:51:57;99037.13;;;19.77;93.66
59825;BME280;45703;50.898;6.054;2023-09-18T06:54:31;99037.34;;;19.81;93.25
59825;BME280;45703;50.898;6.054;2023-09-18T06:56:57;99058.25;;;19.89;93.01
59825;BME280;45703;50.898;6.054;2023-09-18T06:59:22;99060.75;;;19.85;92.97
59825;BME280;45703;50.898;6.054;2023-09-18T07:01:47;99045.94;;;19.83;92.51
59825;BME280;45703;50.898;6.054;2023-09-18T07:04:15;99059.84;;;19.90;92.82
59825;BME280;45703;50.898;6.054;2023-09-18T07:06:43;99067.34;;;19.93;93.00
59825;BME280;45703;50.898;6.054;2023-09-18T07:09:08;99067.97;;;19.90;92.57
59825;BME280;45703;50.898;6.054;2023-09-18T07:11:37;99069.88;;;19.89;92.47
59825;BME280;45703;50.898;6.054;2023-09-18T07:14:02;99057.75;;;19.87;92.75
59825;BME280;45703;50.898;6.054;2023-09-18T07:16:31;99061.59;;;19.86;92.72
59825;BME280;45703;50.898;6.054;2023-09-18T07:18:57;99083.63;;;19.93;92.93
59825;BME280;45703;50.898;6.054;2023-09-18T07:21:22;99078.19;;;19.93;92.35
59825;BME280;45703;50.898;6.054;2023-09-18T07:23:48;99049.50;;;19.92;92.37
59825;BME280;45703;50.898;6.054;2023-09-18T07:26:13;99063.66;;;19.89;92.60
59825;BME280;45703;50.898;6.054;2023-09-18T07:28:39;99072.28;;;19.91;92.86
59825;BME280;45703;50.898;6.054;2023-09-18T07:31:08;99080.91;;;19.93;93.28
59825;BME280;45703;50.898;6.054;2023-09-18T07:33:35;99095.56;;;19.92;92.96
59825;BME280;45703;50.898;6.054;2023-09-18T07:36:00;99089.22;;;19.96;92.96
59825;BME280;45703;50.898;6.054;2023-09-18T07:38:25;99090.00;;;19.97;93.00
59825;BME280;45703;50.898;6.054;2023-09-18T07:40:54;99087.28;;;19.97;92.50
59825;BME280;45703;50.898;6.054;2023-09-18T07:43:19;99084.19;;;20.03;92.37
59825;BME280;45703;50.898;6.054;2023-09-18T07:45:45;99069.84;;;20.03;91.58
59825;BME280;45703;50.898;6.054;2023-09-18T07:48:10;99073.22;;;20.08;91.66
59825;BME280;45703;50.898;6.054;2023-09-18T07:50:36;99099.38;;;20.13;91.63
59825;BME280;45703;50.898;6.054;2023-09-18T07:53:02;99084.72;;;20.14;91.44
59825;BME280;45703;50.898;6.054;2023-09-18T07:55:28;99075.78;;;20.13;91.01
59825;BME280;45703;50.898;6.054;2023-09-18T07:57:55;99090.31;;;20.17;91.26
59825;BME280;45703;50.898;6.054;2023-09-18T08:00:20;99097.22;;;20.23;91.45
59825;BME280;45703;50.898;6.054;2023-09-18T08:02:48;99124.16;;;20.28;91.09
59825;BME280;45703;50.898;6.054;2023-09-18T08:05:16;99129.16;;;20.35;91.10
59825;BME280;45703;50.898;6.054;2023-09-18T08:07:43;99120.91;;;20.40;89.84
59825;BME280;45703;50.898;6.054;2023-09-18T08:10:09;99111.66;;;20.41;90.35
59825;BME280;45703;50.898;6.054;2023-09-18T08:12:35;99134.94;;;20.42;89.90
59825;BME280;45703;50.898;6.054;2023-09-18T08:15:01;99119.97;;;20.44;89.46
59825;BME280;45703;50.898;6.054;2023-09-18T08:17:30;99123.03;;;20.51;89.37
59825;BME280;45703;50.898;6.054;2023-09-18T08:19:56;99124.44;;;20.48;89.26
59825;BME280;45703;50.898;6.054;2023-09-18T08:22:23;99138.97;;;20.52;89.21
59825;BME280;45703;50.898;6.054;2023-09-18T08:24:49;99142.34;;;20.58;89.27
59825;BME280;45703;50.898;6.054;2023-09-18T08:27:18;99144.59;;;20.64;89.68
59825;BME280;45703;50.898;6.054;2023-09-18T08:29:45;99135.72;;;20.72;89.68
59825;BME280;45703;50.898;6.054;2023-09-18T08:32:11;99142.91;;;20.77;88.51
59825;BME280;45703;50.898;6.054;2023-09-18T08:34:36;99143.88;;;20.81;88.40
59825;BME280;45703;50.898;6.054;2023-09-18T08:37:02;99141.38;;;20.84;88.13
59825;BME280;45703;50.898;6.054;2023-09-18T08:39:29;99148.44;;;20.94;87.63
59825;BME280;45703;50.898;6.054;2023-09-18T08:41:59;99142.22;;;20.93;87.80
59825;BME280;45703;50.898;6.054;2023-09-18T08:44:27;99163.00;;;21.06;87.89
59825;BME280;45703;50.898;6.054;2023-09-18T08:46:54;99145.75;;;21.02;86.63
59825;BME280;45703;50.898;6.054;2023-09-18T08:49:22;99138.41;;;21.11;86.67
59825;BME280;45703;50.898;6.054;2023-09-18T08:51:49;99139.56;;;21.19;86.18
59825;BME280;45703;50.898;6.054;2023-09-18T08:54:15;99137.66;;;21.19;85.69
59825;BME280;45703;50.898;6.054;2023-09-18T08:56:41;99138.13;;;21.21;85.18
59825;BME280;45703;50.898;6.054;2023-09-18T08:59:06;99144.84;;;21.24;86.42
59825;BME280;45703;50.898;6.054;2023-09-18T09:01:32;99147.06;;;21.22;86.13
59825;BME280;45703;50.898;6.054;2023-09-18T09:03:57;99133.34;;;21.18;85.83
59825;BME280;45703;50.898;6.054;2023-09-18T09:06:22;99139.84;;;21.17;84.42
59825;BME280;45703;50.898;6.054;2023-09-18T09:08:49;99132.50;;;21.09;85.62
59825;BME280;45703;50.898;6.054;2023-09-18T09:11:15;99132.19;;;21.11;86.18
59825;BME280;45703;50.898;6.054;2023-09-18T09:13:40;99125.16;;;21.01;86.55
59825;BME280;45703;50.898;6.054;2023-09-18T09:16:10;99127.22;;;21.04;85.66
59825;BME280;45703;50.898;6.054;2023-09-18T09:18:47;99134.09;;;21.02;85.39
59825;BME280;45703;50.898;6.054;2023-09-18T09:21:13;99134.72;;;20.99;85.94
59825;BME280;45703;50.898;6.054;2023-09-18T09:23:51;99133.91;;;20.98;86.54
59825;BME280;45703;50.898;6.054;2023-09-18T09:26:19;99136.28;;;20.91;85.92
59825;BME280;45703;50.898;6.054;2023-09-18T09:28:45;99133.59;;;20.91;86.21
59825;BME280;45703;50.898;6.054;2023-09-18T09:31:11;99125.44;;;20.91;86.28
59825;BME280;45703;50.898;6.054;2023-09-18T09:33:37;99131.66;;;20.92;86.11
59825;BME280;45703;50.898;6.054;2023-09-18T09:36:06;99128.16;;;20.91;86.21
59825;BME280;45703;50.898;6.054;2023-09-18T09:38:33;99125.13;;;20.93;86.28
59825;BME280;45703;50.898;6.054;2023-09-18T09:41:00;99144.63;;;21.03;86.24
59825;BME280;45703;50.898;6.054;2023-09-18T09:43:27;99146.41;;;21.16;86.13
59825;BME280;45703;50.898;6.054;2023-09-18T09:46:02;99131.41;;;21.19;86.82
59825;BME280;45703;50.898;6.054;2023-09-18T09:48:29;99137.84;;;21.31;86.22
59825;BME280;45703;50.898;6.054;2023-09-18T09:50:59;99149.66;;;21.52;85.90
59825;BME280;45703;50.898;6.054;2023-09-18T09:53:45;99149.56;;;21.66;85.35
59825;BME280;45703;50.898;6.054;2023-09-18T09:56:12;99132.16;;;21.75;85.04
59825;BME280;45703;50.898;6.054;2023-09-18T09:58:40;99142.84;;;21.80;83.84
59825;BME280;45703;50.898;6.054;2023-09-18T10:01:19;99149.22;;;21.92;83.31
59825;BME280;45703;50.898;6.054;2023-09-18T10:03:46;99148.44;;;22.00;83.05
59825;BME280;45703;50.898;6.054;2023-09-18T10:06:12;99150.16;;;22.05;81.41
59825;BME280;45703;50.898;6.054;2023-09-18T10:08:39;99147.16;;;22.06;82.34
59825;BME280;45703;50.898;6.054;2023-09-18T10:11:06;99153.34;;;22.15;80.84
59825;BME280;45703;50.898;6.054;2023-09-18T10:13:47;99146.97;;;22.20;81.12
59825;BME280;45703;50.898;6.054;2023-09-18T10:16:17;99153.81;;;22.26;80.01
59825;BME280;45703;50.898;6.054;2023-09-18T10:19:00;99145.63;;;22.34;79.57
59825;BME280;45703;50.898;6.054;2023-09-18T10:26:45;99164.63;;;22.60;79.95
59825;BME280;45703;50.898;6.054;2023-09-18T10:29:15;99152.28;;;22.71;79.05
59825;BME280;45703;50.898;6.054;2023-09-18T10:31:46;99141.97;;;22.85;78.68
59825;BME280;45703;50.898;6.054;2023-09-18T10:34:13;99143.66;;;22.98;78.77
59825;BME280;45703;50.898;6.054;2023-09-18T10:36:41;99127.34;;;22.98;75.91
59825;BME280;45703;50.898;6.054;2023-09-18T10:39:09;99128.47;;;22.97;74.93
59825;BME280;45703;50.898;6.054;2023-09-18T10:41:39;99122.81;;;23.02;75.80
59825;BME280;45703;50.898;6.054;2023-09-18T10:44:07;99122.16;;;23.05;76.17
59825;BME280;45703;50.898;6.054;2023-09-18T10:46:33;99135.91;;;23.17;76.14
59825;BME280;45703;50.898;6.054;2023-09-18T10:49:00;99146.94;;;23.20;74.60
59825;BME280;45703;50.898;6.054;2023-09-18T10:51:27;99147.22;;;23.27;74.09
59825;BME280;45703;50.898;6.054;2023-09-18T10:53:53;99164.63;;;23.35;72.48
59825;BME280;45703;50.898;6.054;2023-09-18T10:56:21;99159.00;;;23.40;72.71
59825;BME280;45703;50.898;6.054;2023-09-18T10:58:55;99157.41;;;23.39;72.52
59825;BME280;45703;50.898;6.054;2023-09-18T11:01:23;99148.69;;;23.45;72.55
59825;BME280;45703;50.898;6.054;2023-09-18T11:03:50;99158.59;;;23.49;71.78
59825;BME280;45703;50.898;6.054;2023-09-18T11:06:15;99170.38;;;23.62;72.68
59825;BME280;45703;50.898;6.054;2023-09-18T11:11:35;99161.94;;;23.75;69.91
59825;BME280;45703;50.898;6.054;2023-09-18T11:14:01;99154.06;;;23.82;70.01
59825;BME280;45703;50.898;6.054;2023-09-18T11:18:55;99164.59;;;24.04;70.43
59825;BME280;45703;50.898;6.054;2023-09-18T11:21:33;99157.84;;;24.22;71.72
59825;BME280;45703;50.898;6.054;2023-09-18T11:24:07;99165.56;;;24.20;70.51
59825;BME280;45703;50.898;6.054;2023-09-18T11:26:40;99151.69;;;24.13;67.77
59825;BME280;45703;50.898;6.054;2023-09-18T11:29:09;99144.16;;;24.10;69.06
59825;BME280;45703;50.898;6.054;2023-09-18T11:31:42;99143.50;;;24.13;70.50
59825;BME280;45703;50.898;6.054;2023-09-18T11:34:24;99157.56;;;24.03;68.18
59825;BME280;45703;50.898;6.054;2023-09-18T11:36:57;99150.44;;;24.11;69.21
59825;BME280;45703;50.898;6.054;2023-09-18T11:39:37;99156.81;;;24.15;69.25
59825;BME280;45703;50.898;6.054;2023-09-18T11:42:13;99164.78;;;24.20;68.42
59825;BME280;45703;50.898;6.054;2023-09-18T11:44:41;99155.59;;;24.24;68.94
59825;BME280;45703;50.898;6.054;2023-09-18T11:47:18;99155.41;;;24.29;68.18
59825;BME280;45703;50.898;6.054;2023-09-18T11:49:51;99137.44;;;24.28;67.74
59825;BME280;45703;50.898;6.054;2023-09-18T11:52:22;99152.91;;;24.36;66.44
59825;BME280;45703;50.898;6.054;2023-09-18T11:54:48;99137.44;;;24.40;67.87
59825;BME280;45703;50.898;6.054;2023-09-18T11:57:14;99139.28;;;24.48;69.03
59825;BME280;45703;50.898;6.054;2023-09-18T11:59:43;99127.09;;;24.46;66.82
59825;BME280;45703;50.898;6.054;2023-09-18T12:02:29;99122.25;;;24.51;68.51
59825;BME280;45703;50.898;6.054;2023-09-18T12:05:21;99131.72;;;24.54;68.79
59825;BME280;45703;50.898;6.054;2023-09-18T12:07:51;99124.00;;;24.56;67.26
59825;BME280;45703;50.898;6.054;2023-09-18T12:10:18;99130.22;;;24.56;67.83
59825;BME280;45703;50.898;6.054;2023-09-18T12:12:46;99124.00;;;24.56;65.67
59825;BME280;45703;50.898;6.054;2023-09-18T12:15:13;99131.59;;;24.50;65.78
59825;BME280;45703;50.898;6.054;2023-09-18T12:17:39;99118.44;;;24.32;64.70
59825;BME280;45703;50.898;6.054;2023-09-18T12:20:05;99121.25;;;24.23;63.50
59825;BME280;45703;50.898;6.054;2023-09-18T12:22:31;99128.28;;;24.12;65.80
59825;BME280;45703;50.898;6.054;2023-09-18T12:25:12;99122.94;;;24.16;66.60
59825;BME280;45703;50.898;6.054;2023-09-18T12:27:39;99124.34;;;24.22;65.86
59825;BME280;45703;50.898;6.054;2023-09-18T12:30:05;99116.69;;;24.15;65.49
59825;BME280;45703;50.898;6.054;2023-09-18T12:32:32;99123.28;;;24.14;65.83
59825;BME280;45703;50.898;6.054;2023-09-18T12:34:58;99121.44;;;24.06;66.27
59825;BME280;45703;50.898;6.054;2023-09-18T12:37:24;99123.19;;;23.90;64.53
59825;BME280;45703;50.898;6.054;2023-09-18T12:39:50;99116.47;;;23.88;66.05
59825;BME280;45703;50.898;6.054;2023-09-18T12:42:18;99106.94;;;23.94;66.95
59825;BME280;45703;50.898;6.054;2023-09-18T12:44:46;99120.06;;;24.00;67.06
59825;BME280;45703;50.898;6.054;2023-09-18T12:47:12;99126.09;;;24.06;66.96
59825;BME280;45703;50.898;6.054;2023-09-18T12:49:38;99123.84;;;24.08;65.38
59825;BME280;45703;50.898;6.054;2023-09-18T12:52:05;99129.97;;;24.05;64.75
59825;BME280;45703;50.898;6.054;2023-09-18T12:54:43;99128.69;;;24.02;66.40
59825;BME280;45703;50.898;6.054;2023-09-18T12:57:19;99128.44;;;23.95;65.43
59825;BME280;45703;50.898;6.054;2023-09-18T12:59:45;99132.63;;;23.93;66.54
59825;BME280;45703;50.898;6.054;2023-09-18T13:02:13;99134.56;;;23.92;66.63
59825;BME280;45703;50.898;6.054;2023-09-18T13:04:39;99125.31;;;23.85;67.33
59825;BME280;45703;50.898;6.054;2023-09-18T13:07:10;99122.06;;;23.91;67.06
59825;BME280;45703;50.898;6.054;2023-09-18T13:09:37;99114.59;;;24.00;67.24
59825;BME280;45703;50.898;6.054;2023-09-18T13:12:03;99112.25;;;24.11;68.45
59825;BME280;45703;50.898;6.054;2023-09-18T13:14:29;99111.59;;;24.26;67.46